KVPZ/VPZ METAR and TAF weather

Enter ICAO airport designator
Station Type Date Time Source
KVPZ METAR 2019/05/19 20:41 UTC NOAA

KVPZ 192041Z AUTO 21014G23KT 10SM VCTS FEW026 SCT043 BKN049 23/17 A2961 RMK AO2 PK WND 26040/2018 LTG DSNT NE AND SE RAB01E36 TSB15E30 P0040 T02330167


Station Type Date Time Source
KVPZ Decoded METAR 2019/05/19 20:41 UTC NOAA

VALPARAISO PORTER CO MUNI, IN, United States (KVPZ) 41-27N 087-00W 231M
May 19, 2019 - 04:41 PM EDT / 2019.05.19 2041 UTC
Wind: from the SSW (210 degrees) at 16 MPH (14 KT) gusting to 26 MPH (23 KT):0
Visibility: 10 mile(s):0
Sky conditions: mostly cloudy
Weather: thunder in the vicinity; Lightning observed
Precipitation last hour: 0.40 inches
Temperature: 73.9 F (23.3 C)
Dew Point: 62.1 F (16.7 C)
Relative Humidity: 66%
Pressure (altimeter): 29.61 in. Hg (1002 hPa)
ob: KVPZ 192041Z AUTO 21014G23KT 10SM VCTS FEW026 SCT043 BKN049 23/17 A2961 RMK AO2 PK WND 26040/2018 LTG DSNT NE AND SE RAB01E36 TSB15E30 P0040 T02330167
cycle: 20

Station Type Date Time Source
KVPZ TAF UTC NOAA

Error!

Example: see airport list